Time;durP1;ratioP1;P1;durP2;ratioP2;P2;SDS_P1;SDS_P2;PMS_P1;PMS_P2;Temp;Humidity;BMP_temperature;BMP_pressure;BME280_temperature;BME280_humidity;BME280_pressure;Samples;Min_cycle;Max_cycle;Signal;HPM_P1;HPM_P2
2021/06/08 00:00:23;;;;;;;16.80;8.83;;;18.30;1.00;;;;;;5048605;28;20556;-75
2021/06/08 00:02:58;;;;;;;13.83;9.37;;;;;;;;;;5053077;28;20516;-76
2021/06/08 00:05:28;;;;;;;19.63;10.60;;;18.30;1.00;;;;;;5036474;28;20369;-75
2021/06/08 00:07:58;;;;;;;14.90;8.43;;;18.30;1.00;;;;;;5045955;28;20371;-75
2021/06/08 00:10:24;;;;;;;13.00;7.90;;;18.30;1.00;;;;;;5039590;28;20449;-75
2021/06/08 00:12:52;;;;;;;14.53;9.10;;;18.20;1.00;;;;;;5036082;28;20431;-75
2021/06/08 00:15:18;;;;;;;13.33;8.40;;;;;;;;;;5045979;28;20189;-75
2021/06/08 00:17:44;;;;;;;14.37;9.13;;;18.20;1.00;;;;;;5047333;28;20402;-75
2021/06/08 00:20:10;;;;;;;11.27;8.00;;;18.20;1.00;;;;;;5036069;28;20453;-75
2021/06/08 00:22:36;;;;;;;15.33;9.40;;;;;;;;;;5036810;28;20580;-75
2021/06/08 00:25:10;;;;;;;14.47;9.07;;;18.10;1.00;;;;;;5036156;28;20414;-75
2021/06/08 00:27:46;;;;;;;12.00;8.93;;;18.10;1.00;;;;;;5036053;28;20432;-75
2021/06/08 00:30:12;;;;;;;17.40;9.50;;;18.10;1.00;;;;;;5035843;28;20428;-75
2021/06/08 00:32:39;;;;;;;12.43;8.30;;;18.10;1.00;;;;;;5035901;28;20412;-75
2021/06/08 00:35:10;;;;;;;35.73;9.90;;;18.00;1.00;;;;;;5035692;28;20376;-75
2021/06/08 00:37:37;;;;;;;15.23;8.30;;;18.10;1.00;;;;;;5035978;28;20411;-72
2021/06/08 00:40:05;;;;;;;15.37;8.30;;;18.10;1.00;;;;;;5035540;28;20461;-72
2021/06/08 00:42:33;;;;;;;14.70;9.33;;;18.10;1.00;;;;;;5036077;28;20519;-72
2021/06/08 00:44:59;;;;;;;15.37;9.20;;;18.10;1.00;;;;;;5035544;28;20391;-72
2021/06/08 00:47:25;;;;;;;15.17;9.30;;;18.10;1.00;;;;;;5041173;28;20465;-72
2021/06/08 00:49:52;;;;;;;14.33;9.00;;;18.10;1.00;;;;;;5055518;28;20474;-73
2021/06/08 00:52:18;;;;;;;16.97;9.27;;;;;;;;;;5055712;28;20158;-75
2021/06/08 00:54:44;;;;;;;16.90;9.40;;;18.10;1.00;;;;;;5053591;28;20382;-75
2021/06/08 00:57:10;;;;;;;15.93;8.67;;;18.10;1.00;;;;;;5035275;28;20379;-75
2021/06/08 00:59:36;;;;;;;14.63;8.50;;;18.10;1.00;;;;;;5042264;28;20464;-75
2021/06/08 01:02:03;;;;;;;13.63;9.37;;;18.10;1.00;;;;;;5055454;28;20773;-75
2021/06/08 01:04:34;;;;;;;13.77;9.10;;;18.10;1.00;;;;;;5037499;28;20753;-75
2021/06/08 01:07:00;;;;;;;40.43;11.30;;;18.20;1.00;;;;;;5035273;28;20455;-75
2021/06/08 01:09:34;;;;;;;14.23;9.20;;;18.20;1.00;;;;;;5035520;28;20508;-77
2021/06/08 01:12:04;;;;;;;15.80;9.30;;;18.20;1.00;;;;;;5034810;28;20181;-76
2021/06/08 01:14:30;;;;;;;14.87;9.00;;;18.20;1.00;;;;;;5035112;28;20488;-76
2021/06/08 01:16:58;;;;;;;16.47;9.63;;;18.20;1.00;;;;;;5035077;28;20419;-75
2021/06/08 01:19:24;;;;;;;15.60;9.67;;;18.20;1.00;;;;;;5034956;28;20196;-75
2021/06/08 01:22:04;;;;;;;18.27;10.07;;;18.30;1.00;;;;;;5035000;28;20455;-75
2021/06/08 01:24:30;;;;;;;16.60;8.60;;;18.30;1.00;;;;;;5040370;28;20396;-72
2021/06/08 01:26:56;;;;;;;22.87;9.23;;;18.30;1.00;;;;;;5054413;28;20527;-72
2021/06/08 01:29:23;;;;;;;17.97;9.80;;;18.30;1.00;;;;;;5053182;28;20174;-72
2021/06/08 01:31:52;;;;;;;14.90;8.10;;;18.20;1.00;;;;;;5053054;28;20407;-72
2021/06/08 01:34:19;;;;;;;22.73;8.60;;;18.30;1.00;;;;;;5054740;28;20930;-72
2021/06/08 01:36:45;;;;;;;15.70;9.30;;;;;;;;;;5054384;28;20818;-72
2021/06/08 01:39:16;;;;;;;14.10;9.30;;;18.30;1.00;;;;;;5053323;28;20469;-75
2021/06/08 01:41:43;;;;;;;15.37;9.60;;;;;;;;;;5039840;28;20445;-75
2021/06/08 01:44:13;;;;;;;16.20;9.10;;;18.30;1.00;;;;;;5034435;28;20420;-75
2021/06/08 01:46:46;;;;;;;12.03;8.60;;;18.30;1.00;;;;;;5037437;28;20394;-75
2021/06/08 01:49:12;;;;;;;14.23;8.40;;;;;;;;;;5034355;28;20421;-75
2021/06/08 01:51:41;;;;;;;15.33;8.73;;;18.30;1.00;;;;;;5037198;28;20808;-75
2021/06/08 01:54:25;;;;;;;21.97;9.40;;;18.30;1.00;;;;;;5054172;28;20419;-72
2021/06/08 01:57:12;;;;;;;14.90;10.00;;;18.40;1.00;;;;;;5039779;28;20437;-72
2021/06/08 01:59:58;;;;;;;15.60;8.57;;;;;;;;;;5035675;28;20452;-72
2021/06/08 02:02:54;;;;;;;16.20;9.73;;;18.30;1.00;;;;;;5045027;28;20391;-72
2021/06/08 02:05:29;;;;;;;15.57;9.93;;;18.30;1.00;;;;;;4992366;28;20540;-72
2021/06/08 02:08:33;;;;;;;17.13;9.37;;;18.30;1.00;;;;;;4993247;28;20380;-75
2021/06/08 02:11:40;;;;;;;16.13;10.10;;;18.30;1.00;;;;;;4930663;29;20435;-75
2021/06/08 02:14:38;;;;;;;15.67;9.30;;;18.30;1.00;;;;;;4901411;29;20428;-75
2021/06/08 02:17:23;;;;;;;17.37;9.53;;;18.30;1.00;;;;;;4895837;29;20971;-75
2021/06/08 02:20:03;;;;;;;18.57;9.60;;;;;;;;;;4911758;29;20503;-75
2021/06/08 02:22:30;;;;;;;16.73;8.90;;;18.20;1.00;;;;;;4911589;29;20524;-75
2021/06/08 02:24:57;;;;;;;19.00;9.47;;;18.20;1.00;;;;;;4896877;29;21156;-75
2021/06/08 02:27:34;;;;;;;15.47;8.93;;;18.20;1.00;;;;;;4911815;29;20922;-75
2021/06/08 02:30:05;;;;;;;19.53;9.93;;;18.20;1.00;;;;;;4915344;29;20400;-75
2021/06/08 02:32:31;;;;;;;15.23;9.67;;;18.20;1.00;;;;;;4908457;29;20424;-75
2021/06/08 02:35:02;;;;;;;20.93;10.77;;;18.20;1.00;;;;;;4896107;29;20474;-75
2021/06/08 02:37:28;;;;;;;15.13;9.40;;;18.20;1.00;;;;;;4896682;29;20425;-75
2021/06/08 02:39:55;;;;;;;16.03;9.80;;;18.20;1.00;;;;;;4907149;29;20482;-72
2021/06/08 02:42:23;;;;;;;17.40;9.80;;;18.10;1.00;;;;;;4929033;29;20448;-72
2021/06/08 02:44:52;;;;;;;15.70;9.33;;;18.10;1.00;;;;;;4933797;29;20440;-72
2021/06/08 02:47:19;;;;;;;15.30;9.30;;;18.10;1.00;;;;;;4960808;28;20422;-72
2021/06/08 02:49:47;;;;;;;18.33;10.30;;;18.20;1.00;;;;;;4994172;28;20407;-72
2021/06/08 02:52:15;;;;;;;15.40;10.50;;;18.10;1.00;;;;;;5033428;28;20401;-72
2021/06/08 02:54:41;;;;;;;14.73;9.27;;;18.10;1.00;;;;;;5033983;28;20508;-75
2021/06/08 02:57:10;;;;;;;17.87;9.60;;;18.10;1.00;;;;;;5036324;28;20436;-75
2021/06/08 02:59:49;;;;;;;20.67;10.60;;;18.10;1.00;;;;;;5033376;28;20798;-75
2021/06/08 03:02:17;;;;;;;14.37;9.60;;;18.10;1.00;;;;;;5052776;28;20412;-75
2021/06/08 03:04:48;;;;;;;19.37;9.97;;;18.10;1.00;;;;;;5039510;28;20502;-75
2021/06/08 03:07:15;;;;;;;21.63;8.63;;;18.10;1.00;;;;;;5033597;28;20424;-75
2021/06/08 03:10:10;;;;;;;21.37;10.60;;;18.20;1.00;;;;;;5034598;28;20426;-75
2021/06/08 03:12:57;;;;;;;14.63;9.60;;;18.10;1.00;;;;;;5047134;28;20929;-75
2021/06/08 03:15:59;;;;;;;16.13;8.97;;;18.10;1.00;;;;;;5033399;28;20876;-75
2021/06/08 03:18:37;;;;;;;15.90;9.17;;;18.10;1.00;;;;;;4991395;28;20769;-76
2021/06/08 03:21:35;;;;;;;18.43;8.60;;;18.10;1.00;;;;;;4996352;28;20448;-75
2021/06/08 03:24:05;;;;;;;14.13;8.83;;;18.10;1.00;;;;;;4991953;28;20417;-72
2021/06/08 03:26:36;;;;;;;17.90;8.70;;;;;;;;;;4995848;28;20387;-72
2021/06/08 03:29:05;;;;;;;12.00;8.40;;;18.10;1.00;;;;;;5011126;28;20397;-72
2021/06/08 03:31:33;;;;;;;13.17;8.43;;;18.20;1.00;;;;;;5002228;28;20723;-72
2021/06/08 03:34:15;;;;;;;14.13;9.07;;;18.20;1.00;;;;;;4997712;28;21003;-74
2021/06/08 03:36:52;;;;;;;13.50;9.47;;;18.10;1.00;;;;;;4998209;28;20457;-74
2021/06/08 03:39:51;;;;;;;12.87;9.00;;;18.10;1.00;;;;;;5015044;28;20492;-76
2021/06/08 03:42:46;;;;;;;15.27;9.37;;;18.10;1.00;;;;;;5014624;28;20384;-76
2021/06/08 03:45:33;;;;;;;19.57;8.50;;;18.10;1.00;;;;;;5013203;28;20490;-77
2021/06/08 03:51:21;;;;;;;13.07;9.00;;;;;;;;;;4994991;28;20379;-79
2021/06/08 03:53:52;;;;;;;16.50;10.17;;;;;;;;;;5014147;28;20396;-75
2021/06/08 03:56:29;;;;;;;19.67;11.93;;;18.10;1.00;;;;;;5036456;28;20859;-74
2021/06/08 03:58:56;;;;;;;13.67;9.63;;;18.10;1.00;;;;;;5036191;28;20383;-74
2021/06/08 04:01:52;;;;;;;18.97;9.80;;;18.10;1.00;;;;;;5036337;28;20404;-74
2021/06/08 04:04:23;;;;;;;15.23;9.57;;;;;;;;;;5040721;28;20413;-74
2021/06/08 04:06:49;;;;;;;12.57;8.70;;;18.20;1.00;;;;;;5056069;28;20403;-74
2021/06/08 04:09:16;;;;;;;17.30;10.20;;;18.20;1.00;;;;;;5047151;28;20419;-75
2021/06/08 04:11:43;;;;;;;17.03;9.20;;;;;;;;;;5047939;28;20428;-71
2021/06/08 04:14:10;;;;;;;15.80;9.37;;;18.20;1.00;;;;;;5051956;28;20827;-71
2021/06/08 04:16:40;;;;;;;15.27;8.80;;;18.30;1.00;;;;;;5036704;28;20420;-71
2021/06/08 04:19:10;;;;;;;17.60;10.17;;;18.30;1.00;;;;;;5036111;28;20460;-71
2021/06/08 04:21:36;;;;;;;24.73;9.30;;;18.30;1.00;;;;;;5050520;28;20392;-71
2021/06/08 04:24:16;;;;;;;21.50;9.40;;;18.30;1.00;;;;;;5048412;28;20447;-79
2021/06/08 04:26:46;;;;;;;11.90;8.40;;;18.40;1.00;;;;;;5055466;28;20398;-78
2021/06/08 04:29:12;;;;;;;16.07;9.30;;;18.40;1.00;;;;;;5039586;28;20504;-78
2021/06/08 04:35:07;;;;;;;16.03;10.27;;;18.50;1.00;;;;;;5042790;28;20231;-77
2021/06/08 04:37:33;;;;;;;17.20;9.80;;;;;;;;;;5035703;28;20436;-77
2021/06/08 04:39:59;;;;;;;13.87;8.90;;;18.50;1.00;;;;;;5035791;28;20480;-72
2021/06/08 04:42:25;;;;;;;18.33;8.80;;;;;;;;;;5037686;28;20452;-72
2021/06/08 04:44:52;;;;;;;14.97;9.60;;;18.60;1.00;;;;;;5053978;28;20173;-72
2021/06/08 04:47:20;;;;;;;15.57;10.20;;;18.60;1.00;;;;;;5055574;28;20891;-72
2021/06/08 04:49:53;;;;;;;19.00;10.13;;;;;;;;;;5055492;28;20405;-72
2021/06/08 04:52:19;;;;;;;18.67;10.40;;;;;;;;;;5040962;28;20412;-72
2021/06/08 04:54:45;;;;;;;23.73;9.33;;;18.60;1.00;;;;;;5038591;28;20399;-72
2021/06/08 04:57:13;;;;;;;17.40;9.57;;;;;;;;;;5046281;28;20785;-72
2021/06/08 04:59:51;;;;;;;14.37;9.07;;;18.70;1.00;;;;;;5053643;28;20198;-72
2021/06/08 05:02:28;;;;;;;16.37;9.67;;;18.80;1.00;;;;;;5035276;28;20387;-72
2021/06/08 05:04:55;;;;;;;22.43;10.07;;;18.90;1.00;;;;;;5056358;28;20507;-72
2021/06/08 05:07:22;;;;;;;17.80;8.90;;;18.90;1.00;;;;;;5075015;28;20403;-72
2021/06/08 05:09:51;;;;;;;15.93;9.40;;;18.90;1.00;;;;;;5075436;28;20777;-72
2021/06/08 05:12:21;;;;;;;16.03;9.17;;;19.00;1.00;;;;;;5073556;28;20736;-72
2021/06/08 05:14:53;;;;;;;17.60;9.50;;;19.00;1.00;;;;;;5050848;28;20475;-72
2021/06/08 05:17:21;;;;;;;12.03;8.53;;;19.10;1.00;;;;;;5047698;28;20459;-72
2021/06/08 05:19:49;;;;;;;15.07;8.80;;;19.10;1.00;;;;;;5062406;28;20460;-72
2021/06/08 05:22:19;;;;;;;14.00;9.83;;;19.10;1.00;;;;;;5074407;28;20399;-72
2021/06/08 05:24:56;;;;;;;13.67;9.33;;;19.10;1.00;;;;;;5074526;28;20450;-72
2021/06/08 05:27:23;;;;;;;22.03;9.00;;;19.20;1.00;;;;;;5074275;28;20400;-72
2021/06/08 05:29:53;;;;;;;20.93;10.40;;;19.20;1.00;;;;;;5074177;28;20407;-72
2021/06/08 05:32:20;;;;;;;16.87;9.37;;;19.20;1.00;;;;;;5062941;28;20395;-72
2021/06/08 05:34:46;;;;;;;16.50;10.87;;;;;;;;;;5054211;28;20417;-72
2021/06/08 05:37:16;;;;;;;16.33;9.97;;;19.30;1.00;;;;;;5053782;28;20417;-72
2021/06/08 05:39:43;;;;;;;15.53;9.17;;;19.40;1.00;;;;;;5054368;28;20453;-75
2021/06/08 05:42:12;;;;;;;12.77;9.00;;;19.50;1.00;;;;;;5053741;28;20509;-75
2021/06/08 05:44:38;;;;;;;13.17;9.07;;;;;;;;;;5053981;28;20903;-75
2021/06/08 05:47:06;;;;;;;16.10;8.37;;;19.70;1.00;;;;;;5053888;28;20401;-75
2021/06/08 05:49:33;;;;;;;14.30;8.77;;;19.90;1.00;;;;;;5053918;28;20479;-75
2021/06/08 05:52:10;;;;;;;14.37;10.10;;;20.00;1.00;;;;;;5053381;28;20412;-75
2021/06/08 05:54:36;;;;;;;16.50;10.30;;;;;;;;;;5053848;28;20492;-75
2021/06/08 05:57:02;;;;;;;14.87;9.43;;;;;;;;;;5032400;28;20426;-76
2021/06/08 05:59:29;;;;;;;11.80;8.53;;;;;;;;;;5032512;28;20465;-75
2021/06/08 06:01:55;;;;;;;15.80;9.83;;;;;;;;;;5033831;28;20395;-75
2021/06/08 06:04:24;;;;;;;12.33;8.73;;;20.20;1.00;;;;;;5033674;28;20401;-75
2021/06/08 06:06:50;;;;;;;27.07;11.60;;;20.30;1.00;;;;;;5035077;28;20391;-75
2021/06/08 06:09:19;;;;;;;15.93;8.63;;;;;;;;;;5053556;28;20372;-75
2021/06/08 06:11:48;;;;;;;16.70;8.90;;;20.50;1.00;;;;;;5036571;28;20803;-75
2021/06/08 06:14:20;;;;;;;18.10;8.60;;;20.60;1.00;;;;;;5033595;28;20434;-75
2021/06/08 06:16:49;;;;;;;12.97;9.07;;;;;;;;;;5033637;28;20406;-75
2021/06/08 06:19:15;;;;;;;13.40;8.47;;;;;;;;;;5033495;28;20987;-75
2021/06/08 06:21:41;;;;;;;12.40;9.10;;;21.00;1.00;;;;;;5033376;28;20969;-75
2021/06/08 06:24:10;;;;;;;14.57;9.60;;;21.10;1.00;;;;;;5033451;28;20486;-75
2021/06/08 06:26:36;;;;;;;14.17;9.20;;;;;;;;;;5033621;28;20418;-75
2021/06/08 06:29:09;;;;;;;13.50;9.13;;;21.20;1.00;;;;;;5033450;28;20796;-75
2021/06/08 06:31:35;;;;;;;19.90;8.47;;;21.40;1.00;;;;;;5033291;28;20765;-75
2021/06/08 06:34:02;;;;;;;16.87;9.03;;;21.40;1.00;;;;;;5033063;28;20412;-75
2021/06/08 06:36:30;;;;;;;15.17;9.30;;;21.50;1.00;;;;;;5032966;28;20858;-75
2021/06/08 06:39:03;;;;;;;17.40;9.73;;;21.60;1.00;;;;;;5031852;28;20425;-75
2021/06/08 06:41:29;;;;;;;13.80;8.83;;;21.60;1.00;;;;;;5033169;28;20499;-75
2021/06/08 06:43:56;;;;;;;12.50;8.67;;;;;;;;;;5033114;28;20403;-75
2021/06/08 06:46:22;;;;;;;14.70;9.80;;;21.80;1.00;;;;;;5033086;28;20880;-75
2021/06/08 06:48:55;;;;;;;14.60;9.10;;;21.70;1.00;;;;;;5031822;28;20751;-76
2021/06/08 06:51:21;;;;;;;13.50;9.30;;;21.80;1.00;;;;;;5032984;28;20488;-75
2021/06/08 06:53:51;;;;;;;17.50;8.93;;;21.80;1.00;;;;;;5031767;28;20520;-75
2021/06/08 06:56:21;;;;;;;11.93;8.40;;;21.90;1.00;;;;;;5033069;28;20404;-72
2021/06/08 06:58:47;;;;;;;11.63;8.47;;;;;;;;;;5032901;28;20405;-72
2021/06/08 07:01:14;;;;;;;16.27;9.20;;;;;;;;;;5032917;28;20409;-72
2021/06/08 07:03:40;;;;;;;12.67;9.00;;;;;;;;;;5033654;28;20398;-72
2021/06/08 07:06:09;;;;;;;15.50;9.20;;;22.20;1.00;;;;;;5037134;28;20380;-72
2021/06/08 07:08:36;;;;;;;12.50;8.00;;;22.30;1.00;;;;;;5037051;28;20411;-72
2021/06/08 07:11:02;;;;;;;12.03;8.30;;;;;;;;;;5058249;28;20803;-72
2021/06/08 07:13:28;;;;;;;17.80;8.07;;;22.60;1.00;;;;;;5036805;28;20886;-72
2021/06/08 07:15:55;;;;;;;18.93;7.50;;;22.70;1.00;;;;;;5037186;28;20427;-72
2021/06/08 07:18:21;;;;;;;12.77;8.77;;;22.70;1.00;;;;;;5036935;28;20433;-72
2021/06/08 07:20:47;;;;;;;13.57;7.30;;;;;;;;;;5036749;28;20863;-72
2021/06/08 07:23:20;;;;;;;15.60;8.00;;;22.80;1.00;;;;;;5037047;28;20585;-72
2021/06/08 07:25:46;;;;;;;16.83;8.03;;;22.90;1.00;;;;;;5037110;28;20403;-72
2021/06/08 07:28:12;;;;;;;12.83;8.60;;;23.00;1.00;;;;;;5034746;28;20958;-72
2021/06/08 07:30:42;;;;;;;14.13;8.40;;;22.90;1.00;;;;;;5052769;28;20764;-72
2021/06/08 07:33:12;;;;;;;16.13;8.40;;;22.90;1.00;;;;;;5059359;28;20909;-72
2021/06/08 07:35:50;;;;;;;9.67;7.93;;;22.90;1.00;;;;;;5076300;28;20423;-72
2021/06/08 07:38:20;;;;;;;13.07;8.10;;;23.10;1.00;;;;;;5076113;28;20545;-72
2021/06/08 07:41:09;;;;;;;14.93;8.17;;;23.20;1.00;;;;;;5076124;28;20990;-75
2021/06/08 07:43:38;;;;;;;10.43;7.97;;;23.50;1.00;;;;;;5076312;28;20381;-75
2021/06/08 07:46:14;;;;;;;13.37;7.90;;;23.70;1.00;;;;;;5066678;28;20406;-75
2021/06/08 07:48:43;;;;;;;11.70;7.50;;;23.60;1.00;;;;;;5055941;28;20892;-75
2021/06/08 07:51:11;;;;;;;14.20;8.70;;;23.70;1.00;;;;;;5056145;28;20449;-75
2021/06/08 07:53:37;;;;;;;11.70;8.20;;;23.90;1.00;;;;;;5056114;28;20406;-75
2021/06/08 07:56:03;;;;;;;18.87;7.90;;;;;;;;;;5056168;28;20935;-75
2021/06/08 07:58:29;;;;;;;8.47;6.93;;;24.20;1.00;;;;;;5056009;28;20490;-75
2021/06/08 08:00:58;;;;;;;10.73;8.17;;;24.30;1.00;;;;;;5055786;28;20522;-75
2021/06/08 08:03:25;;;;;;;11.53;8.17;;;;;;;;;;5055999;28;20220;-75
2021/06/08 08:05:52;;;;;;;13.77;8.10;;;24.40;1.00;;;;;;5055883;28;20418;-75
2021/06/08 08:08:20;;;;;;;13.20;7.90;;;24.60;1.00;;;;;;5056001;28;20409;-75
2021/06/08 08:10:48;;;;;;;11.83;7.53;;;24.90;1.00;;;;;;5040877;28;20505;-75
2021/06/08 08:13:18;;;;;;;10.30;7.13;;;25.00;1.00;;;;;;5036101;28;20401;-75
2021/06/08 08:15:45;;;;;;;10.07;7.03;;;25.20;1.00;;;;;;5035178;28;20458;-75
2021/06/08 08:18:12;;;;;;;11.00;7.47;;;25.30;1.00;;;;;;5035719;28;20418;-75
2021/06/08 08:20:53;;;;;;;8.40;7.23;;;25.40;1.00;;;;;;5035568;28;20452;-75
2021/06/08 08:23:20;;;;;;;11.03;6.77;;;25.60;1.00;;;;;;5042940;28;20901;-76
2021/06/08 08:25:47;;;;;;;12.90;7.77;;;25.50;1.00;;;;;;5056031;28;20494;-75
2021/06/08 08:28:14;;;;;;;9.70;7.07;;;;;;;;;;5047736;28;20432;-72
2021/06/08 08:30:41;;;;;;;9.23;7.30;;;25.80;1.00;;;;;;5045423;28;20442;-72
2021/06/08 08:33:07;;;;;;;13.30;7.17;;;26.00;1.00;;;;;;5055259;28;20404;-72
2021/06/08 08:35:36;;;;;;;10.20;7.40;;;25.80;1.00;;;;;;5055040;28;20392;-72
2021/06/08 08:38:03;;;;;;;19.33;8.40;;;25.70;1.00;;;;;;5070448;28;20887;-72
2021/06/08 08:40:29;;;;;;;12.60;8.43;;;;;;;;;;5059231;28;20466;-72
2021/06/08 08:42:55;;;;;;;10.70;7.07;;;;;;;;;;5075657;28;20421;-75
2021/06/08 08:45:21;;;;;;;9.10;6.73;;;25.90;1.00;;;;;;5075017;28;20390;-75
2021/06/08 08:47:47;;;;;;;15.63;8.30;;;25.90;1.00;;;;;;5074982;28;20426;-75
2021/06/08 08:50:16;;;;;;;17.60;8.90;;;25.80;1.00;;;;;;5074753;28;20427;-75
2021/06/08 08:52:55;;;;;;;16.10;9.00;;;25.90;1.00;;;;;;5072191;28;20399;-75
2021/06/08 08:55:25;;;;;;;8.63;6.90;;;26.20;1.00;;;;;;5054428;28;20449;-75
2021/06/08 08:57:53;;;;;;;10.87;8.20;;;26.00;1.00;;;;;;5055237;28;20418;-72
2021/06/08 09:00:21;;;;;;;13.83;8.07;;;26.00;1.00;;;;;;5067328;28;20452;-72
2021/06/08 09:02:49;;;;;;;11.13;7.00;;;26.20;1.00;;;;;;5074752;28;20398;-72
2021/06/08 09:05:15;;;;;;;13.43;8.60;;;;;;;;;;5074729;28;20875;-72
2021/06/08 09:07:41;;;;;;;10.03;7.70;;;;;;;;;;5074709;28;20490;-72
2021/06/08 09:10:09;;;;;;;10.23;7.10;;;26.70;1.00;;;;;;5065063;28;20427;-72
2021/06/08 09:12:36;;;;;;;9.50;7.37;;;26.90;1.00;;;;;;5054847;28;20919;-75
2021/06/08 09:15:04;;;;;;;11.57;7.33;;;27.10;1.00;;;;;;5054538;28;20446;-75
2021/06/08 09:17:30;;;;;;;10.33;7.10;;;27.40;1.00;;;;;;5054460;28;20474;-75
2021/06/08 09:19:57;;;;;;;10.30;7.50;;;;;;;;;;5054716;28;20447;-75
2021/06/08 09:22:23;;;;;;;9.30;7.43;;;27.50;1.00;;;;;;5054413;28;20438;-75
2021/06/08 09:24:55;;;;;;;11.77;8.47;;;27.40;1.00;;;;;;5054393;28;20400;-75
2021/06/08 09:27:28;;;;;;;8.27;6.70;;;27.60;1.00;;;;;;5053259;28;20757;-75
2021/06/08 09:29:54;;;;;;;13.20;7.50;;;27.80;1.00;;;;;;5038509;28;20467;-75
2021/06/08 09:32:25;;;;;;;12.57;7.40;;;27.80;1.00;;;;;;5051446;28;20941;-75
2021/06/08 09:34:58;;;;;;;8.80;6.53;;;27.90;1.00;;;;;;5054194;28;20174;-75
2021/06/08 09:37:39;;;;;;;9.57;7.60;;;27.80;1.00;;;;;;5053973;28;20407;-75
2021/06/08 09:40:28;;;;;;;13.73;8.10;;;27.80;1.00;;;;;;5053819;28;20533;-75
2021/06/08 09:43:08;;;;;;;10.37;7.30;;;27.80;1.00;;;;;;5045289;28;20840;-72
2021/06/08 09:45:44;;;;;;;11.07;6.80;;;27.80;1.00;;;;;;5053751;28;20486;-72
2021/06/08 09:48:10;;;;;;;11.07;7.00;;;27.90;1.00;;;;;;5053110;28;20419;-73
2021/06/08 09:50:55;;;;;;;14.80;7.23;;;28.10;1.00;;;;;;5053620;28;20415;-72
2021/06/08 09:53:23;;;;;;;10.00;7.60;;;27.80;1.00;;;;;;5053668;28;20450;-72
2021/06/08 09:55:55;;;;;;;8.10;6.87;;;27.80;1.00;;;;;;5053790;28;20454;-73
2021/06/08 09:58:22;;;;;;;10.17;7.23;;;27.80;1.00;;;;;;5054045;28;20407;-75
2021/06/08 10:01:17;;;;;;;9.60;6.93;;;27.90;1.00;;;;;;5053678;28;20443;-75
2021/06/08 10:03:54;;;;;;;11.60;6.70;;;28.00;1.00;;;;;;5053463;28;20400;-75
2021/06/08 10:06:25;;;;;;;12.93;7.13;;;28.20;1.00;;;;;;5053629;28;20391;-75
2021/06/08 10:08:50;;;;;;;11.13;7.77;;;28.40;1.00;;;;;;5053387;28;20392;-75
2021/06/08 10:11:22;;;;;;;10.67;8.17;;;28.20;1.00;;;;;;5034411;28;20410;-76
2021/06/08 10:13:59;;;;;;;10.47;7.70;;;28.20;1.00;;;;;;5065818;28;20175;-75
2021/06/08 10:16:30;;;;;;;9.40;7.40;;;28.30;1.00;;;;;;5033861;28;20430;-75
2021/06/08 10:18:57;;;;;;;7.13;6.20;;;28.40;1.00;;;;;;5033399;28;20941;-75
2021/06/08 10:21:39;;;;;;;9.40;7.57;;;28.50;1.00;;;;;;5033246;28;20438;-75
2021/06/08 10:24:11;;;;;;;11.50;7.73;;;28.50;1.00;;;;;;5033951;28;20400;-75
2021/06/08 10:26:38;;;;;;;9.10;7.43;;;28.40;1.00;;;;;;5033400;28;20433;-75
2021/06/08 10:29:07;;;;;;;9.00;7.17;;;28.40;1.00;;;;;;5033558;28;20489;-75
2021/06/08 10:31:34;;;;;;;11.40;8.43;;;28.50;1.00;;;;;;5031211;28;20458;-75
2021/06/08 10:34:04;;;;;;;9.37;6.50;;;28.50;1.00;;;;;;5033146;28;20392;-75
2021/06/08 10:36:30;;;;;;;12.13;7.93;;;28.40;1.00;;;;;;5032916;28;20452;-75
2021/06/08 10:38:56;;;;;;;16.50;8.00;;;28.20;1.00;;;;;;5032481;28;20434;-75
2021/06/08 10:41:22;;;;;;;9.80;7.47;;;28.00;1.00;;;;;;5032718;28;20402;-75
2021/06/08 10:43:48;;;;;;;10.80;7.33;;;;;;;;;;5033464;28;20512;-75
2021/06/08 10:46:26;;;;;;;11.23;7.20;;;28.70;1.00;;;;;;5032647;28;20175;-75
2021/06/08 10:48:53;;;;;;;9.20;7.67;;;28.80;1.00;;;;;;5044456;28;20417;-75
2021/06/08 10:51:23;;;;;;;10.53;6.67;;;28.80;1.00;;;;;;5052856;28;20468;-75
2021/06/08 10:53:56;;;;;;;10.27;7.40;;;28.90;1.00;;;;;;5052719;28;20519;-75
2021/06/08 10:56:29;;;;;;;9.17;7.37;;;28.90;1.00;;;;;;5052753;28;20444;-75
2021/06/08 10:59:00;;;;;;;11.67;7.50;;;28.90;1.00;;;;;;5053075;28;20496;-72
2021/06/08 11:01:34;;;;;;;9.03;7.60;;;28.90;1.00;;;;;;5052789;28;20397;-73
2021/06/08 11:04:04;;;;;;;11.47;7.47;;;28.70;1.00;;;;;;5052674;28;20386;-73
2021/06/08 11:06:48;;;;;;;10.40;8.00;;;28.90;1.00;;;;;;5052751;28;20388;-73
2021/06/08 11:09:22;;;;;;;18.00;8.87;;;29.20;1.00;;;;;;5050347;28;20471;-73
2021/06/08 11:11:54;;;;;;;9.13;6.73;;;29.40;1.00;;;;;;5032790;28;20402;-73
2021/06/08 11:14:46;;;;;;;9.40;7.33;;;29.70;1.00;;;;;;5033104;28;20397;-76
2021/06/08 11:17:14;;;;;;;10.53;6.70;;;29.80;1.00;;;;;;5032702;28;20378;-76
2021/06/08 11:20:00;;;;;;;7.17;6.47;;;29.90;1.00;;;;;;5064712;28;20824;-76
2021/06/08 11:22:32;;;;;;;18.77;8.10;;;29.70;1.00;;;;;;5032566;28;20460;-75
2021/06/08 11:24:57;;;;;;;9.07;7.27;;;29.80;1.00;;;;;;5032661;28;20398;-75
2021/06/08 11:27:53;;;;;;;11.90;8.17;;;29.70;1.00;;;;;;5032619;28;20390;-75
2021/06/08 11:30:26;;;;;;;8.30;7.00;;;29.50;1.00;;;;;;5032305;28;20165;-75
2021/06/08 11:32:52;;;;;;;13.23;7.90;;;;;;;;;;5036217;28;20435;-75
2021/06/08 11:35:21;;;;;;;12.57;7.83;;;29.40;1.00;;;;;;5032253;28;20403;-75
2021/06/08 11:38:03;;;;;;;13.10;8.07;;;29.40;1.00;;;;;;5032355;28;20936;-75
2021/06/08 11:40:35;;;;;;;13.37;7.20;;;29.50;1.00;;;;;;5032279;28;20480;-75
2021/06/08 11:43:02;;;;;;;8.87;7.00;;;29.70;1.00;;;;;;5033078;28;20486;-72
2021/06/08 11:45:35;;;;;;;11.10;7.43;;;30.00;1.00;;;;;;5032441;28;20477;-73
2021/06/08 11:48:01;;;;;;;10.93;7.37;;;30.30;1.00;;;;;;5032518;28;20485;-73
2021/06/08 11:50:42;;;;;;;10.53;6.90;;;30.30;1.00;;;;;;5037538;28;20509;-73
2021/06/08 11:53:09;;;;;;;8.80;7.50;;;30.10;1.00;;;;;;5056156;28;20397;-73
2021/06/08 11:55:35;;;;;;;12.67;7.67;;;30.40;1.00;;;;;;5056178;28;20426;-73
2021/06/08 11:58:04;;;;;;;11.60;6.83;;;30.40;1.00;;;;;;5056213;28;20453;-75
2021/06/08 12:00:50;;;;;;;8.63;6.67;;;30.30;1.00;;;;;;5055919;28;20437;-73
2021/06/08 12:03:32;;;;;;;9.23;6.60;;;30.40;1.00;;;;;;5055963;28;20389;-73
2021/06/08 12:06:00;;;;;;;8.33;6.90;;;30.60;1.00;;;;;;5055958;28;20448;-73
2021/06/08 12:08:32;;;;;;;7.50;6.60;;;30.70;1.00;;;;;;5055860;28;20402;-73
2021/06/08 12:11:17;;;;;;;8.33;7.00;;;30.50;1.00;;;;;;5039746;28;20454;-73
2021/06/08 12:13:43;;;;;;;8.57;6.73;;;30.60;1.00;;;;;;5036140;28;20461;-75
2021/06/08 12:16:16;;;;;;;9.83;7.97;;;30.70;1.00;;;;;;5036179;28;20423;-75
2021/06/08 12:18:42;;;;;;;8.80;7.10;;;30.60;1.00;;;;;;5035800;28;20423;-75
2021/06/08 12:21:15;;;;;;;11.63;6.90;;;30.80;1.00;;;;;;5035951;28;20537;-75
2021/06/08 12:23:43;;;;;;;8.83;6.90;;;30.70;1.00;;;;;;5035711;28;20449;-75
2021/06/08 12:26:13;;;;;;;10.23;7.27;;;;;;;;;;5035341;28;20426;-75
2021/06/08 12:28:44;;;;;;;9.63;6.63;;;30.90;1.00;;;;;;5043970;28;20771;-73
2021/06/08 12:31:20;;;;;;;7.37;6.57;;;30.80;1.00;;;;;;5054299;28;20607;-73
2021/06/08 12:33:48;;;;;;;7.70;6.60;;;30.60;1.00;;;;;;5055394;28;20394;-73
2021/06/08 12:36:15;;;;;;;18.10;8.30;;;;;;;;;;5041604;28;20853;-73
2021/06/08 12:38:54;;;;;;;8.50;7.17;;;30.30;1.00;;;;;;5041547;28;20941;-73
2021/06/08 12:41:28;;;;;;;9.00;7.33;;;29.90;1.00;;;;;;5035845;28;20516;-73
2021/06/08 12:43:56;;;;;;;9.50;7.73;;;29.80;1.00;;;;;;5045814;28;20467;-75
2021/06/08 12:46:32;;;;;;;8.40;6.73;;;29.80;1.00;;;;;;5043637;28;20480;-75
2021/06/08 12:49:12;;;;;;;7.50;6.73;;;29.80;1.00;;;;;;5049952;28;20414;-76
2021/06/08 12:51:38;;;;;;;9.37;7.37;;;29.90;1.00;;;;;;5049447;28;20406;-76
2021/06/08 12:54:06;;;;;;;8.33;6.80;;;30.00;1.00;;;;;;5054912;28;20431;-78
2021/06/08 12:56:33;;;;;;;11.77;7.70;;;29.80;1.00;;;;;;5057097;28;20942;-78
2021/06/08 12:58:59;;;;;;;10.60;7.30;;;29.80;1.00;;;;;;5055088;28;20420;-77
2021/06/08 13:01:25;;;;;;;9.50;7.33;;;29.70;1.00;;;;;;5050921;28;20425;-77
2021/06/08 13:03:52;;;;;;;8.93;7.00;;;29.60;1.00;;;;;;5043613;28;20428;-78
2021/06/08 13:06:20;;;;;;;13.50;8.60;;;29.50;1.00;;;;;;5054993;28;20891;-78
2021/06/08 13:08:47;;;;;;;9.40;7.30;;;29.50;1.00;;;;;;5054723;28;20400;-77
2021/06/08 13:11:39;;;;;;;8.63;7.73;;;29.70;1.00;;;;;;5054398;28;20452;-77
2021/06/08 13:14:07;;;;;;;8.10;6.97;;;29.90;1.00;;;;;;5051959;28;20899;-76
2021/06/08 13:16:38;;;;;;;10.87;7.27;;;30.20;1.00;;;;;;5052385;28;20464;-76
2021/06/08 13:19:22;;;;;;;7.97;6.47;;;30.30;1.00;;;;;;5054392;28;20912;-75
2021/06/08 13:21:53;;;;;;;9.73;7.03;;;30.20;1.00;;;;;;5054202;28;20742;-77
2021/06/08 13:24:26;;;;;;;11.03;7.83;;;30.40;1.00;;;;;;5054306;28;20405;-76
2021/06/08 13:27:09;;;;;;;10.70;7.23;;;30.70;1.00;;;;;;5043960;28;20426;-76
2021/06/08 13:29:34;;;;;;;10.37;6.77;;;31.00;1.00;;;;;;5054013;28;21031;-77